Time;durP1;ratioP1;P1;durP2;ratioP2;P2;SDS_P1;SDS_P2;PMS_P1;PMS_P2;Temp;Humidity;BMP_temperature;BMP_pressure;BME280_temperature;BME280_humidity;BME280_pressure;Samples;Min_cycle;Max_cycle;Signal;HPM_P1;HPM_P2
2021/06/28 00:00:37;;;;;;;19.35;10.45;;;;;;;20.41;61.83;95145.97;4973099;28;20077;-80
2021/06/28 00:03:03;;;;;;;24.10;10.48;;;;;;;20.39;61.88;95149.69;4972840;28;20031;-80
2021/06/28 00:05:29;;;;;;;18.17;9.77;;;;;;;20.36;61.97;95155.56;4934300;28;20530;-79
2021/06/28 00:07:54;;;;;;;16.95;8.60;;;;;;;20.33;61.76;95156.09;4952534;28;20027;-80
2021/06/28 00:10:22;;;;;;;13.80;7.25;;;;;;;20.29;62.25;95149.81;4976897;28;20033;-80
2021/06/28 00:12:47;;;;;;;17.17;8.82;;;;;;;20.23;62.11;95153.59;4962838;28;20062;-78
2021/06/28 00:15:17;;;;;;;19.13;7.72;;;;;;;20.24;62.33;95163.09;4964844;28;20035;-80
2021/06/28 00:17:43;;;;;;;14.95;8.02;;;;;;;20.16;62.51;95160.28;4978836;28;20066;-79
2021/06/28 00:20:10;;;;;;;12.05;7.05;;;;;;;20.14;62.73;95167.72;4961250;28;20652;-78
2021/06/28 00:22:36;;;;;;;11.05;7.88;;;;;;;20.11;62.77;95168.28;4966242;28;20788;-78
2021/06/28 00:25:04;;;;;;;11.85;8.18;;;;;;;20.05;63.00;95162.28;4964612;28;20039;-78
2021/06/28 00:27:30;;;;;;;17.63;9.25;;;;;;;20.01;62.98;95169.19;4955157;28;20046;-78
2021/06/28 00:29:55;;;;;;;27.80;11.43;;;;;;;19.96;63.52;95164.75;4970607;28;20063;-79
2021/06/28 00:32:21;;;;;;;29.23;11.43;;;;;;;19.91;63.23;95156.13;4954029;28;20035;-78
2021/06/28 00:34:46;;;;;;;25.17;11.35;;;;;;;19.84;63.45;95161.72;4993655;28;20090;-79
2021/06/28 00:55:20;;;;;;;12.82;7.80;;;;;;;19.61;65.27;95155.38;4970451;28;20074;-78
2021/06/28 00:57:46;;;;;;;13.45;7.65;;;;;;;19.61;64.90;95158.00;4970267;28;20166;-78
2021/06/28 01:00:12;;;;;;;14.23;8.05;;;;;;;19.61;64.84;95155.38;4970443;28;20043;-78
2021/06/28 01:02:37;;;;;;;16.25;7.60;;;;;;;19.61;65.30;95149.31;4951131;28;20050;-78
2021/06/28 01:05:06;;;;;;;9.85;7.90;;;;;;;19.61;64.91;95150.09;4947903;28;20094;-78
2021/06/28 01:07:31;;;;;;;13.30;8.50;;;;;;;19.65;64.84;95151.09;4969653;28;20027;-78
2021/06/28 01:09:56;;;;;;;17.55;7.35;;;;;;;19.63;64.42;95142.69;4968244;28;20035;-78
2021/06/28 01:12:25;;;;;;;12.55;7.43;;;;;;;19.61;64.71;95144.03;4963959;28;20429;-78
2021/06/28 01:14:51;;;;;;;11.35;7.50;;;;;;;19.60;64.57;95156.44;4979633;28;20090;-78
2021/06/28 01:17:18;;;;;;;13.10;7.50;;;;;;;19.55;65.03;95155.72;4981040;28;20590;-78
2021/06/28 01:19:45;;;;;;;12.57;7.78;;;;;;;19.42;65.14;95147.34;4958307;28;20042;-80
2021/06/28 01:22:11;;;;;;;9.20;6.60;;;;;;;19.45;65.07;95148.66;4949288;28;20688;-79
2021/06/28 01:24:36;;;;;;;16.15;8.07;;;;;;;19.44;65.29;95147.06;4955082;28;20015;-79
2021/06/28 01:27:01;;;;;;;12.00;7.55;;;;;;;19.41;65.02;95145.78;4989420;28;20093;-77
2021/06/28 01:29:27;;;;;;;11.88;7.28;;;;;;;19.37;65.50;95144.00;4977837;28;20035;-81
2021/06/28 01:31:52;;;;;;;16.50;8.05;;;;;;;19.37;65.23;95155.31;4951987;28;20031;-80
2021/06/28 01:34:18;;;;;;;16.42;9.13;;;;;;;19.36;65.32;95152.94;4971404;28;20035;-80
2021/06/28 01:36:43;;;;;;;19.67;11.88;;;;;;;19.33;65.11;95156.94;4953474;28;20038;-80
2021/06/28 01:39:09;;;;;;;28.45;17.08;;;;;;;19.32;65.01;95157.22;4983961;28;20113;-80
2021/06/28 01:41:34;;;;;;;23.20;12.48;;;;;;;19.29;65.32;95157.75;4971205;28;20034;-80
2021/06/28 01:43:59;;;;;;;17.83;8.85;;;;;;;19.30;65.19;95165.41;4971613;28;20026;-80
2021/06/28 01:46:25;;;;;;;10.02;7.13;;;;;;;19.24;64.79;95161.25;4967191;28;20082;-79
2021/06/28 01:48:50;;;;;;;8.73;6.97;;;;;;;19.20;64.83;95162.88;4986811;28;20038;-79
2021/06/28 01:51:16;;;;;;;12.02;7.80;;;;;;;19.16;64.92;95162.63;4967347;28;20031;-79
2021/06/28 01:53:41;;;;;;;8.35;6.25;;;;;;;19.11;64.99;95165.31;4973159;28;20038;-79
2021/06/28 01:56:07;;;;;;;15.40;6.55;;;;;;;19.08;64.39;95163.22;4956136;28;20027;-79
2021/06/28 01:58:36;;;;;;;10.38;6.10;;;;;;;19.08;64.54;95157.94;4951594;28;20042;-79
2021/06/28 02:01:02;;;;;;;10.15;6.07;;;;;;;19.09;64.21;95164.00;4953491;28;20037;-79
2021/06/28 02:03:28;;;;;;;8.52;6.13;;;;;;;19.12;64.24;95163.44;4935335;28;20031;-79
2021/06/28 02:05:58;;;;;;;21.55;6.50;;;;;;;19.10;63.89;95166.38;4951968;28;20035;-79
2021/06/28 02:08:30;;;;;;;12.88;6.13;;;;;;;19.08;63.56;95173.75;4953542;28;20054;-79
2021/06/28 02:11:00;;;;;;;13.80;6.53;;;;;;;19.09;63.73;95170.06;4964920;28;20031;-79
2021/06/28 02:13:27;;;;;;;10.40;6.03;;;;;;;19.08;64.06;95173.75;4964800;28;20069;-79
2021/06/28 02:15:53;;;;;;;11.07;6.20;;;;;;;19.03;63.96;95165.88;4965877;28;20051;-78
2021/06/28 02:18:21;;;;;;;14.00;6.78;;;;;;;19.02;64.26;95164.31;4967729;28;20530;-79
2021/06/28 02:20:47;;;;;;;15.70;7.40;;;;;;;19.02;64.12;95172.22;4972514;23;20038;-78
2021/06/28 02:23:21;;;;;;;21.83;6.10;;;;;;;19.00;63.87;95171.72;4965582;28;20035;-79
2021/06/28 02:25:58;;;;;;;16.42;6.40;;;;;;;18.98;64.33;95176.47;4970172;28;20111;-79
2021/06/28 02:28:25;;;;;;;10.13;6.18;;;;;;;18.95;64.38;95169.13;4958008;28;20495;-79
2021/06/28 02:30:51;;;;;;;28.92;6.45;;;;;;;18.95;63.94;95177.03;4953164;28;20031;-79
2021/06/28 02:33:16;;;;;;;8.48;6.43;;;;;;;18.91;64.21;95173.38;4993624;28;20041;-79
2021/06/28 02:35:42;;;;;;;17.05;6.63;;;;;;;18.87;63.85;95172.31;4984726;28;20034;-79
2021/06/28 02:38:07;;;;;;;18.25;5.82;;;;;;;18.83;64.34;95173.94;5000029;28;20118;-79
2021/06/28 02:43:00;;;;;;;20.23;6.22;;;;;;;18.74;64.10;95178.25;4975603;28;20054;-78
2021/06/28 02:45:28;;;;;;;24.55;6.53;;;;;;;18.72;64.49;95175.09;4977424;28;20039;-79
2021/06/28 02:47:53;;;;;;;20.67;6.68;;;;;;;18.71;64.43;95173.50;4959421;28;20050;-78
2021/06/28 02:50:19;;;;;;;25.42;6.38;;;;;;;18.71;63.90;95168.22;4942871;29;20031;-79
2021/06/28 02:52:44;;;;;;;20.38;6.68;;;;;;;18.66;64.18;95182.22;4944467;29;20034;-79
2021/06/28 02:55:10;;;;;;;21.65;6.75;;;;;;;18.58;64.51;95186.19;4962521;28;20241;-78
2021/06/28 02:57:36;;;;;;;8.82;6.25;;;;;;;18.53;64.68;95188.84;4945227;29;20035;-79
2021/06/28 03:00:13;;;;;;;7.72;5.82;;;;;;;18.52;64.16;95187.28;4929253;29;20047;-78
2021/06/28 03:02:38;;;;;;;17.60;5.95;;;;;;;18.56;64.36;95185.69;4960194;29;20098;-78
2021/06/28 03:05:04;;;;;;;24.40;6.95;;;;;;;18.62;64.50;95170.63;4945218;29;20043;-78
2021/06/28 03:07:30;;;;;;;25.60;7.72;;;;;;;18.66;64.24;95178.81;4945146;28;20093;-79
2021/06/28 03:09:56;;;;;;;21.00;6.93;;;;;;;18.69;64.24;95184.31;4945579;28;20121;-78
2021/06/28 03:12:21;;;;;;;29.52;6.22;;;;;;;18.72;64.25;95185.63;4962034;29;20031;-78
2021/06/28 03:14:47;;;;;;;22.60;6.07;;;;;;;18.77;64.15;95182.94;4946603;28;20043;-79
2021/06/28 03:17:12;;;;;;;16.58;6.07;;;;;;;18.77;63.97;95177.69;4960927;29;20035;-78
2021/06/28 03:19:38;;;;;;;5.72;5.20;;;;;;;18.79;64.07;95180.81;4962560;28;20039;-78
2021/06/28 03:22:03;;;;;;;27.05;6.97;;;;;;;18.78;63.73;95184.53;4945083;29;20027;-79
2021/06/28 03:24:29;;;;;;;24.40;6.38;;;;;;;18.78;63.33;95182.69;4945141;29;20476;-78
2021/06/28 03:26:54;;;;;;;12.27;5.57;;;;;;;18.78;63.47;95187.94;4962360;28;20039;-80
2021/06/28 03:29:20;;;;;;;31.02;7.93;;;;;;;18.77;63.64;95183.75;4959326;29;20056;-79
2021/06/28 03:31:45;;;;;;;48.33;7.85;;;;;;;18.82;63.44;95190.81;4958123;29;20427;-79
2021/06/28 03:34:10;;;;;;;17.67;5.82;;;;;;;18.81;63.37;95194.50;4959935;28;20606;-80
2021/06/28 03:36:36;;;;;;;16.73;6.60;;;;;;;18.85;63.61;95200.81;4957381;28;20042;-79
2021/06/28 03:39:02;;;;;;;17.35;6.18;;;;;;;18.91;62.74;95201.56;4956793;29;20027;-79
2021/06/28 03:41:27;;;;;;;16.27;5.72;;;;;;;18.94;61.94;95199.16;4959027;28;20114;-79
2021/06/28 03:43:56;;;;;;;14.43;6.40;;;;;;;19.01;62.38;95194.38;4962494;28;20039;-79
2021/06/28 03:46:21;;;;;;;9.35;5.80;;;;;;;19.10;61.90;95198.00;4961452;29;20088;-79
2021/06/28 03:48:47;;;;;;;6.90;5.88;;;;;;;19.16;61.25;95204.78;4961296;28;20035;-79
2021/06/28 03:51:12;;;;;;;10.75;5.35;;;;;;;19.11;61.08;95198.78;4960780;28;20042;-79
2021/06/28 03:53:37;;;;;;;14.70;6.22;;;;;;;19.12;61.42;95206.41;4958824;28;20035;-80
2021/06/28 03:56:06;;;;;;;8.63;6.13;;;;;;;19.16;61.16;95202.16;4943309;29;20038;-79
2021/06/28 03:58:36;;;;;;;19.23;6.63;;;;;;;19.26;61.98;95201.31;4943595;29;20034;-80
2021/06/28 04:01:11;;;;;;;17.33;6.53;;;;;;;19.41;61.95;95205.66;4956728;28;20130;-78
2021/06/28 04:03:37;;;;;;;13.27;6.03;;;;;;;19.56;61.71;95199.50;4925558;29;20038;-78
2021/06/28 04:06:05;;;;;;;13.35;5.13;;;;;;;20.59;58.43;95198.06;4960264;28;20031;-79
2021/06/28 04:08:34;;;;;;;6.45;4.97;;;;;;;23.38;49.27;95202.66;4942194;28;20110;-78
2021/06/28 04:11:00;;;;;;;8.80;5.13;;;;;;;25.99;43.40;95208.91;4970480;23;21068;-78
2021/06/28 04:13:25;;;;;;;18.10;4.85;;;;;;;28.16;38.73;95202.69;4991073;28;20041;-79
2021/06/28 04:15:56;;;;;;;29.13;5.28;;;;;;;30.16;34.26;95201.06;4986722;28;20105;-79
2021/06/28 04:18:22;;;;;;;14.38;4.38;;;;;;;32.17;31.10;95210.16;4972460;28;20082;-79
2021/06/28 04:21:13;;;;;;;11.05;4.18;;;;;;;34.08;27.97;95194.13;4986690;28;20061;-79
2021/06/28 04:23:38;;;;;;;25.90;4.32;;;;;;;35.53;25.81;95198.88;4989220;28;20042;-79
2021/06/28 04:26:04;;;;;;;12.70;4.28;;;;;;;36.80;23.56;95203.59;4988954;28;20057;-79
2021/06/28 04:28:29;;;;;;;13.82;4.07;;;;;;;37.73;22.08;95201.31;4988518;28;20106;-80
2021/06/28 04:30:55;;;;;;;9.38;4.07;;;;;;;38.53;21.14;95200.31;4989718;28;20062;-80
2021/06/28 04:33:21;;;;;;;12.32;4.10;;;;;;;39.29;20.34;95204.59;4972622;28;20034;-80
2021/06/28 04:38:21;;;;;;;10.07;4.47;;;;;;;41.05;18.59;95204.25;4975443;23;20054;-78
2021/06/28 04:40:48;;;;;;;11.05;3.95;;;;;;;41.86;17.15;95197.53;4971535;28;20046;-78
2021/06/28 04:43:13;;;;;;;9.00;4.57;;;;;;;42.47;16.92;95202.31;4979243;28;20058;-79
2021/06/28 04:45:39;;;;;;;13.68;4.82;;;;;;;43.05;16.68;95213.34;4966944;28;20392;-79
2021/06/28 04:48:05;;;;;;;10.95;3.80;;;;;;;43.63;15.73;95213.28;4979807;28;20027;-79
2021/06/28 04:50:30;;;;;;;12.63;4.10;;;;;;;44.08;15.22;95212.31;4996375;28;20026;-79
2021/06/28 04:52:56;;;;;;;7.18;4.10;;;;;;;44.62;15.07;95219.63;4997931;28;20039;-78
2021/06/28 04:55:22;;;;;;;19.48;4.70;;;;;;;45.07;14.39;95222.00;4989332;28;20042;-79
2021/06/28 04:57:47;;;;;;;9.13;3.97;;;;;;;45.19;14.17;95216.44;4980222;28;20149;-80
2021/06/28 05:00:15;;;;;;;8.18;3.20;;;;;;;45.78;13.96;95214.69;5004646;28;20546;-80
2021/06/28 05:02:41;;;;;;;9.00;3.75;;;;;;;46.65;13.24;95218.31;4987538;28;20046;-81
2021/06/28 05:05:07;;;;;;;9.60;3.38;;;;;;;47.40;12.85;95215.88;4998875;28;20038;-80
2021/06/28 05:07:32;;;;;;;8.02;3.75;;;;;;;47.81;11.99;95217.13;4965848;28;20034;-81
2021/06/28 05:09:58;;;;;;;11.00;3.20;;;;;;;48.22;12.09;95225.09;5007648;28;20094;-80
2021/06/28 05:12:23;;;;;;;16.92;3.70;;;;;;;48.74;11.98;95220.19;4997360;28;20038;-80
2021/06/28 05:14:52;;;;;;;8.93;3.50;;;;;;;48.90;11.51;95222.53;4983111;28;20478;-80
2021/06/28 05:17:18;;;;;;;17.27;3.65;;;;;;;49.33;11.52;95223.88;4981207;28;20038;-81
2021/06/28 05:19:43;;;;;;;14.13;3.50;;;;;;;49.66;11.28;95228.47;4982395;28;20027;-81
2021/06/28 05:22:09;;;;;;;14.75;3.20;;;;;;;49.80;11.06;95228.44;4980757;28;20470;-81
2021/06/28 05:24:34;;;;;;;9.43;3.30;;;;;;;49.93;10.89;95228.13;5005351;28;20113;-82
2021/06/28 05:26:59;;;;;;;10.02;3.88;;;;;;;50.03;10.94;95226.03;4992363;28;20041;-82
2021/06/28 05:29:25;;;;;;;14.48;3.35;;;;;;;50.14;10.77;95229.72;4979556;28;20219;-81
2021/06/28 05:31:50;;;;;;;15.02;4.03;;;;;;;50.54;10.67;95228.25;4978461;28;20042;-81
2021/06/28 05:34:16;;;;;;;16.38;4.30;;;;;;;50.85;10.13;95230.44;4976154;28;20487;-81
2021/06/28 05:36:41;;;;;;;9.30;3.70;;;;;;;50.99;10.26;95237.13;4979374;28;20030;-81
2021/06/28 05:39:07;;;;;;;8.32;3.22;;;;;;;51.12;10.09;95231.25;4979746;28;20045;-81
2021/06/28 05:41:32;;;;;;;14.32;3.50;;;;;;;51.13;10.07;95230.75;5002625;28;20026;-81
2021/06/28 05:44:13;;;;;;;8.27;3.60;;;;;;;51.19;9.77;95234.34;5004042;28;20503;-82
2021/06/28 05:46:38;;;;;;;;;;;;;;;51.31;9.92;95235.22;4958510;28;20454;-81
2021/06/28 05:49:04;;;;;;;13.07;3.45;;;;;;;51.61;9.55;95239.28;4979468;28;19981;-81
2021/06/28 05:51:29;;;;;;;8.57;3.60;;;;;;;51.58;9.72;95245.03;4980478;28;20043;-82
2021/06/28 05:54:01;;;;;;;19.58;3.75;;;;;;;51.05;10.08;95237.97;4978276;28;20027;-82
2021/06/28 05:56:26;;;;;;;8.63;3.20;;;;;;;51.06;9.45;95249.81;4977852;28;20069;-82
2021/06/28 05:58:52;;;;;;;5.38;2.97;;;;;;;50.86;9.99;95240.25;4979264;28;20034;-81
2021/06/28 06:01:20;;;;;;;7.22;3.30;;;;;;;50.95;10.05;95255.97;4979695;28;20034;-82
2021/06/28 06:03:45;;;;;;;15.27;3.47;;;;;;;50.87;9.70;95252.84;4979647;28;20034;-82
2021/06/28 06:06:12;;;;;;;7.90;3.08;;;;;;;50.96;10.15;95249.19;4977582;28;20379;-81
2021/06/28 06:08:38;;;;;;;5.57;3.10;;;;;;;51.15;9.43;95252.44;4955995;28;20031;-81
2021/06/28 06:11:03;;;;;;;7.25;3.33;;;;;;;51.29;10.03;95243.25;4979365;23;20042;-81
2021/06/28 06:13:29;;;;;;;12.25;3.30;;;;;;;51.13;9.71;95243.84;4991581;28;20049;-81
2021/06/28 06:15:55;;;;;;;7.55;3.20;;;;;;;50.81;9.92;95249.28;4989615;28;20775;-81
2021/06/28 06:18:21;;;;;;;9.80;3.38;;;;;;;50.99;10.03;95251.75;4975842;28;20046;-80
2021/06/28 06:20:46;;;;;;;7.32;3.67;;;;;;;50.74;9.87;95247.66;4973855;28;20030;-80
2021/06/28 06:23:12;;;;;;;8.77;3.30;;;;;;;50.82;9.97;95253.56;4991623;28;20092;-81
2021/06/28 06:25:41;;;;;;;9.85;3.30;;;;;;;50.06;10.35;95250.72;4969292;28;20086;-79
2021/06/28 06:28:07;;;;;;;5.43;3.80;;;;;;;50.32;10.03;95245.31;4970908;28;20038;-79
2021/06/28 06:30:33;;;;;;;13.30;3.55;;;;;;;50.34;10.28;95256.69;4987792;28;20027;-80
2021/06/28 06:32:58;;;;;;;8.40;4.18;;;;;;;50.26;10.24;95249.25;4989867;28;20046;-80
2021/06/28 06:35:24;;;;;;;10.73;3.85;;;;;;;49.21;10.78;95247.75;4991278;28;20417;-80
2021/06/28 06:37:53;;;;;;;13.85;4.03;;;;;;;48.62;11.49;95247.56;4989042;28;20104;-80
2021/06/28 06:40:18;;;;;;;11.85;4.18;;;;;;;48.78;11.20;95240.09;4991783;28;20058;-82
2021/06/28 06:42:44;;;;;;;9.65;3.42;;;;;;;48.22;11.76;95238.88;4988602;28;20046;-79
2021/06/28 06:45:10;;;;;;;16.50;4.00;;;;;;;47.77;12.16;95237.81;4989374;28;20027;-79
2021/06/28 06:47:36;;;;;;;11.93;4.10;;;;;;;47.45;12.66;95239.25;4989946;28;20125;-81
2021/06/28 06:50:02;;;;;;;7.75;3.28;;;;;;;48.11;12.16;95242.16;4997567;28;20039;-79
2021/06/28 06:52:27;;;;;;;17.00;3.97;;;;;;;47.36;12.62;95236.53;5000917;28;20442;-80
2021/06/28 06:54:53;;;;;;;15.85;4.25;;;;;;;46.84;12.99;95236.38;4999015;28;20093;-80
2021/06/28 06:57:18;;;;;;;5.70;3.15;;;;;;;46.41;12.90;95228.38;4990543;28;20041;-80
2021/06/28 06:59:44;;;;;;;22.33;4.05;;;;;;;46.35;13.67;95234.44;4989230;28;20027;-80
2021/06/28 07:02:09;;;;;;;9.73;3.72;;;;;;;46.15;13.59;95231.34;4991202;28;20501;-80
2021/06/28 07:04:35;;;;;;;10.63;3.25;;;;;;;46.38;13.70;95232.78;4992787;28;20031;-81
2021/06/28 07:07:00;;;;;;;15.50;3.00;;;;;;;45.35;14.49;95236.69;4989878;28;20498;-81
2021/06/28 07:09:32;;;;;;;7.63;3.20;;;;;;;44.59;15.03;95227.53;4973743;28;20038;-80
2021/06/28 07:11:58;;;;;;;9.10;2.88;;;;;;;43.97;15.48;95227.13;4992041;28;20041;-80
2021/06/28 07:14:31;;;;;;;7.68;3.28;;;;;;;43.87;16.29;95222.75;4988725;28;20502;-80
2021/06/28 07:16:56;;;;;;;22.27;3.38;;;;;;;43.35;16.29;95221.13;4987961;28;20117;-80
2021/06/28 07:19:22;;;;;;;7.32;3.30;;;;;;;42.88;16.86;95218.09;4987673;28;20038;-80
2021/06/28 07:21:48;;;;;;;15.82;3.53;;;;;;;42.31;17.27;95216.00;4975184;28;20061;-80
2021/06/28 07:24:17;;;;;;;10.93;3.03;;;;;;;41.77;17.72;95211.00;4987684;28;20166;-80
2021/06/28 07:26:43;;;;;;;10.98;3.33;;;;;;;41.18;18.15;95209.09;4955680;28;20125;-80
2021/06/28 07:29:09;;;;;;;9.48;3.00;;;;;;;40.46;19.15;95202.19;5003163;28;20121;-80
2021/06/28 07:31:35;;;;;;;10.93;3.33;;;;;;;39.88;19.55;95204.22;4992205;28;20038;-80
2021/06/28 07:34:00;;;;;;;9.88;3.05;;;;;;;39.41;20.14;95203.31;4973011;28;20026;-80
2021/06/28 07:36:26;;;;;;;5.88;3.00;;;;;;;38.98;20.40;95208.44;4993357;28;20035;-80
2021/06/28 07:38:51;;;;;;;4.05;2.97;;;;;;;38.52;20.79;95196.06;4993722;28;20593;-80
2021/06/28 07:41:17;;;;;;;7.43;3.08;;;;;;;38.24;20.31;95196.31;4990367;28;20049;-80
2021/06/28 07:43:42;;;;;;;6.03;3.13;;;;;;;37.99;22.08;95202.69;4991871;28;20030;-80
2021/06/28 07:46:08;;;;;;;7.22;2.88;;;;;;;37.85;21.47;95208.22;4976197;28;20053;-80
2021/06/28 07:48:33;;;;;;;4.47;2.80;;;;;;;37.68;20.84;95209.06;4990306;28;20119;-79
2021/06/28 07:50:59;;;;;;;3.92;2.58;;;;;;;37.32;21.77;95211.19;4992584;28;20034;-80
2021/06/28 07:53:24;;;;;;;3.40;3.00;;;;;;;37.03;22.24;95203.13;4994268;28;20028;-79
2021/06/28 07:55:50;;;;;;;16.95;3.63;;;;;;;36.91;22.35;95215.16;4988232;28;20063;-78
2021/06/28 07:58:15;;;;;;;7.68;3.10;;;;;;;36.74;23.02;95210.53;4975335;28;20034;-79
2021/06/28 08:00:41;;;;;;;11.20;3.22;;;;;;;36.58;23.32;95207.47;4991788;28;20056;-82
2021/06/28 08:03:06;;;;;;;10.52;4.00;;;;;;;36.38;22.33;95212.53;4991375;28;20038;-81
2021/06/28 08:05:35;;;;;;;9.23;3.50;;;;;;;36.08;24.29;95212.88;4990504;28;20034;-81
2021/06/28 08:08:01;;;;;;;7.28;3.00;;;;;;;35.73;23.30;95214.38;4988742;28;20518;-80
2021/06/28 08:10:26;;;;;;;4.75;3.15;;;;;;;35.59;23.94;95219.75;4991723;28;20034;-80
2021/06/28 08:12:52;;;;;;;8.75;3.58;;;;;;;35.50;23.88;95211.22;4976629;28;20041;-80
2021/06/28 08:15:20;;;;;;;4.38;3.22;;;;;;;35.33;24.48;95209.22;4989256;28;20112;-81
2021/06/28 08:17:55;;;;;;;5.00;3.22;;;;;;;34.92;23.46;95217.50;4990411;28;20066;-80
2021/06/28 08:20:20;;;;;;;7.07;2.95;;;;;;;33.94;24.35;95211.75;4990595;28;20037;-80
2021/06/28 08:22:46;;;;;;;3.65;2.72;;;;;;;33.79;26.00;95220.03;4993309;28;20054;-80
2021/06/28 08:25:12;;;;;;;4.05;2.85;;;;;;;33.79;25.79;95214.63;4989211;28;20042;-81
2021/06/28 08:27:38;;;;;;;3.22;2.90;;;;;;;33.72;25.14;95224.22;4990599;28;20066;-79
2021/06/28 08:30:04;;;;;;;4.45;2.90;;;;;;;33.68;25.09;95209.13;4990137;28;20030;-81
2021/06/28 08:32:30;;;;;;;4.90;2.97;;;;;;;33.67;25.16;95215.66;5007351;28;20034;-81
2021/06/28 08:34:56;;;;;;;5.50;3.25;;;;;;;33.65;24.82;95221.44;4995061;28;20026;-81
2021/06/28 08:37:22;;;;;;;16.27;2.90;;;;;;;33.56;24.96;95212.09;4993652;28;20100;-81
2021/06/28 08:39:47;;;;;;;3.80;2.03;;;;;;;33.50;22.52;95208.19;4993290;28;20057;-81
2021/06/28 08:42:17;;;;;;;6.03;2.40;;;;;;;33.36;23.41;95209.59;4992683;28;20481;-81
2021/06/28 08:44:43;;;;;;;2.97;2.58;;;;;;;33.29;24.18;95208.69;4994557;28;20042;-81
2021/06/28 08:47:09;;;;;;;4.35;2.17;;;;;;;33.21;24.91;95207.06;4975609;28;20034;-81
2021/06/28 08:49:34;;;;;;;4.72;2.60;;;;;;;33.13;25.98;95204.28;4993017;28;20031;-80
2021/06/28 08:52:00;;;;;;;4.22;2.35;;;;;;;33.12;25.73;95199.25;4974267;28;20030;-80
2021/06/28 08:54:25;;;;;;;4.28;2.30;;;;;;;33.08;25.60;95203.81;4992618;28;20039;-81
2021/06/28 08:56:52;;;;;;;4.65;2.58;;;;;;;33.02;24.55;95199.88;4990352;28;20041;-81
2021/06/28 08:59:17;;;;;;;6.78;2.30;;;;;;;32.95;24.08;95205.19;4973201;28;20034;-81
2021/06/28 09:01:43;;;;;;;2.20;1.98;;;;;;;32.87;24.26;95206.22;4989841;28;20047;-81
2021/06/28 09:04:08;;;;;;;3.90;2.13;;;;;;;32.79;25.23;95203.41;5004846;28;20034;-81
2021/06/28 09:06:34;;;;;;;5.53;2.22;;;;;;;32.76;25.85;95200.69;4972946;28;20038;-80
2021/06/28 09:09:02;;;;;;;2.30;2.10;;;;;;;32.74;26.50;95200.28;4991601;28;20058;-81
2021/06/28 09:11:28;;;;;;;8.73;2.70;;;;;;;32.71;26.93;95195.63;4975491;28;20042;-81
2021/06/28 09:13:55;;;;;;;4.97;2.40;;;;;;;32.68;26.57;95196.31;4992097;28;20130;-81
2021/06/28 09:16:27;;;;;;;6.25;2.72;;;;;;;32.61;24.27;95202.41;5002432;28;20069;-81
2021/06/28 09:18:53;;;;;;;6.00;2.80;;;;;;;32.21;24.50;95201.00;4995304;28;20049;-80
2021/06/28 09:21:37;;;;;;;8.50;2.50;;;;;;;32.16;25.19;95198.63;4995158;28;20038;-81
2021/06/28 09:24:03;;;;;;;7.53;2.53;;;;;;;32.16;24.32;95198.63;4993209;28;20675;-81
2021/06/28 09:26:30;;;;;;;4.03;2.50;;;;;;;32.20;26.42;95199.44;4974297;28;20035;-80
2021/06/28 09:28:57;;;;;;;6.60;2.10;;;;;;;32.23;26.25;95203.34;4993450;28;20061;-81
2021/06/28 09:31:33;;;;;;;4.72;2.20;;;;;;;31.91;24.03;95208.97;4988720;28;20129;-81
2021/06/28 09:34:07;;;;;;;2.33;1.90;;;;;;;31.62;23.33;95213.03;4988789;28;20046;-81
2021/06/28 09:36:32;;;;;;;2.10;1.98;;;;;;;31.50;25.24;95207.81;4989596;28;20039;-81
2021/06/28 09:38:58;;;;;;;10.38;2.80;;;;;;;31.51;25.20;95212.06;4975906;28;20057;-81
2021/06/28 09:41:29;;;;;;;8.43;2.67;;;;;;;31.60;26.60;95203.78;4990804;28;20037;-81
2021/06/28 09:44:05;;;;;;;3.63;2.33;;;;;;;31.58;26.40;95206.81;4982976;28;20057;-80
2021/06/28 09:46:31;;;;;;;6.88;2.40;;;;;;;31.63;24.40;95203.06;4989375;28;20050;-81
2021/06/28 09:48:57;;;;;;;4.65;1.98;;;;;;;31.44;23.74;95203.88;4991447;28;20058;-81
2021/06/28 09:51:33;;;;;;;6.78;2.63;;;;;;;31.40;24.33;95199.53;4977192;28;20061;-81
2021/06/28 09:54:08;;;;;;;2.72;2.30;;;;;;;31.40;24.05;95204.91;4989947;28;20042;-82
2021/06/28 09:56:37;;;;;;;6.28;2.78;;;;;;;31.40;25.13;95199.53;4991813;28;20030;-80
2021/06/28 09:59:35;;;;;;;2.83;2.35;;;;;;;31.36;23.87;95202.94;4996092;28;20041;-82
2021/06/28 10:02:25;;;;;;;5.55;2.10;;;;;;;31.29;26.11;95210.09;4989155;28;20076;-81
2021/06/28 10:05:32;;;;;;;3.55;1.98;;;;;;;31.26;26.21;95206.22;4992023;28;20065;-81
2021/06/28 10:07:56;;;;;;;4.07;2.10;;;;;;;31.28;26.72;95208.56;4977085;28;20094;-80
2021/06/28 10:10:23;;;;;;;8.40;2.22;;;;;;;31.26;25.74;95200.06;4973609;28;20039;-81
2021/06/28 10:12:51;;;;;;;6.75;2.40;;;;;;;31.20;26.10;95202.25;4989839;28;20042;-79
2021/06/28 10:15:18;;;;;;;2.38;1.80;;;;;;;31.20;26.13;95193.41;4990775;28;20065;-80
2021/06/28 10:17:44;;;;;;;3.92;2.05;;;;;;;31.04;24.99;95199.59;4989457;28;20051;-79
2021/06/28 10:20:11;;;;;;;3.08;2.30;;;;;;;31.00;25.13;95187.22;4992097;28;20030;-79
2021/06/28 10:22:37;;;;;;;2.72;1.83;;;;;;;30.96;27.23;95192.53;4973571;28;20038;-79
2021/06/28 10:25:03;;;;;;;5.63;1.92;;;;;;;30.88;24.58;95185.44;4990169;28;20082;-80
2021/06/28 10:27:28;;;;;;;8.40;2.30;;;;;;;30.66;24.55;95186.13;4990196;28;20036;-80
2021/06/28 10:29:54;;;;;;;13.73;2.03;;;;;;;30.61;25.31;95175.66;4988711;28;20452;-80
2021/06/28 10:32:20;;;;;;;3.40;2.00;;;;;;;30.67;26.53;95185.00;4992872;28;20046;-82
2021/06/28 10:34:49;;;;;;;5.13;2.03;;;;;;;30.75;26.96;95178.66;4988181;28;20490;-80
2021/06/28 10:37:47;;;;;;;5.22;2.80;;;;;;;30.76;26.60;95177.53;4989641;28;20039;-81
2021/06/28 10:40:17;;;;;;;7.90;2.05;;;;;;;30.76;27.24;95177.53;4987287;28;20498;-79
2021/06/28 10:42:49;;;;;;;2.63;1.88;;;;;;;30.77;25.65;95176.41;4989718;28;20027;-79
2021/06/28 10:45:35;;;;;;;3.55;1.70;;;;;;;30.59;26.17;95170.63;4990884;28;20117;-80
2021/06/28 10:48:15;;;;;;;4.82;1.92;;;;;;;30.64;27.71;95167.69;4990344;28;20065;-80
2021/06/28 10:51:00;;;;;;;3.33;2.30;;;;;;;30.70;27.94;95162.81;4971615;28;20050;-80
2021/06/28 10:53:29;;;;;;;2.60;1.92;;;;;;;30.71;27.28;95161.69;4991819;28;20109;-80
2021/06/28 10:59:02;;;;;;;3.17;2.20;;;;;;;30.65;27.56;95161.19;5009715;28;20526;-80
2021/06/28 11:01:39;;;;;;;5.28;1.60;;;;;;;30.66;27.69;95159.28;4974337;28;20047;-81
2021/06/28 11:04:05;;;;;;;6.78;1.67;;;;;;;30.69;27.94;95155.91;4986923;28;20166;-81
2021/06/28 11:06:31;;;;;;;2.85;2.08;;;;;;;30.70;28.18;95162.81;4991779;28;20141;-81
2021/06/28 11:08:58;;;;;;;13.45;2.08;;;;;;;30.67;27.54;95152.78;4972417;28;20050;-81
2021/06/28 11:11:46;;;;;;;2.08;1.88;;;;;;;30.64;27.10;95159.66;4988606;28;20050;-80
2021/06/28 11:14:18;;;;;;;5.53;1.70;;;;;;;30.56;26.33;95157.13;4992571;28;20065;-80
2021/06/28 11:17:06;;;;;;;5.47;2.10;;;;;;;30.50;24.93;95145.09;5008397;28;20051;-80
2021/06/28 11:22:49;;;;;;;9.63;2.08;;;;;;;30.52;25.64;95135.56;4992346;28;20121;-80
2021/06/28 11:25:20;;;;;;;6.90;1.77;;;;;;;30.45;26.84;95136.22;4989921;28;20043;-82
2021/06/28 11:27:49;;;;;;;4.25;1.75;;;;;;;30.41;28.32;95139.91;4988691;28;20039;-80
2021/06/28 11:30:14;;;;;;;1.95;1.85;;;;;;;30.42;28.98;95136.88;4990635;28;20058;-81
2021/06/28 11:32:58;;;;;;;1.73;1.63;;;;;;;30.43;30.03;95133.09;4993849;28;20510;-81
2021/06/28 11:35:46;;;;;;;2.15;1.73;;;;;;;30.42;27.87;95125.38;4994046;28;20049;-80
2021/06/28 11:38:20;;;;;;;8.05;1.92;;;;;;;30.39;27.78;95118.81;5006169;28;20102;-80
2021/06/28 11:41:14;;;;;;;4.10;1.75;;;;;;;30.34;26.49;95112.94;4989780;28;20049;-80
2021/06/28 11:43:43;;;;;;;2.92;1.67;;;;;;;30.22;24.51;95108.47;4991248;28;20058;-81
2021/06/28 11:47:29;;;;;;;3.28;1.80;;;;;;;30.15;25.19;95113.69;4993089;28;20057;-81
2021/06/28 11:49:35;;;;;;;4.53;2.00;;;;;;;30.10;26.76;95097.84;4991170;28;20050;-80
2021/06/28 11:52:01;;;;;;;6.22;3.10;;;;;;;30.19;27.10;95103.81;4975520;28;20046;-80
2021/06/28 11:54:32;;;;;;;5.28;3.20;;;;;;;30.25;25.49;95105.06;4973724;28;20041;-80
2021/06/28 11:57:01;;;;;;;5.80;3.25;;;;;;;30.27;25.59;95113.59;4997218;28;20035;-81
2021/06/28 11:59:29;;;;;;;2.97;1.90;;;;;;;30.30;31.14;95112.88;4993183;28;20034;-80
2021/06/28 12:02:00;;;;;;;2.28;2.08;;;;;;;30.27;26.62;95108.22;4989467;28;20106;-80